Terminal Aerodrome Forecast
Issued by NWS Shreveport, LA

Home | Current Version | Previous Version | Text Only | Print | Product List | Glossary On
Versions: 1 2 3 4 5 6 7 8 9 10 11 12 13 14 15 16 17 18
000
FTUS44 KSHV 262300
TAFTYR
TAF
KTYR 262322Z 2700/2724 01010KT P6SM SCT035 BKN100
     FM271300 05010KT P6SM BKN025 OVC070=

USA.gov is the U.S. government's official web portal to all federal, state and local government web resources and services.